Latest Weather Observations for Forbes

IDN60801

Issued at 8:12 pm EDT Monday 22 December 2014 (issued every 30 minutes, with the page automatically refreshed every 10 minutes)

About weather observations | Map of weather stations | Latest weather observations for NSW | Other Formats
Station Details ID: 065103 Name: FORBES AIRPORT AWS Lat: -33.36 Lon: 147.92 Height: 230.4 m
Data from the previous 72 hours. | See also: Recent months at Forbes
Date/Time
EDT
Temp
°C
App
Temp
°C
Dew
Point
Rel
Hum
%
Delta-T
°C
Wind Press
QNH
hPa
Press
MSL
hPa
Rain
since 9 am
mm
Dir
 
Spd
km/h
Gust
km/h
Spd
kts
Gust
kts
22/08:00pm 26.9 26.6 14.3 46 7.6 NW 9 20 5 11 1010.6 1009.5 0.0
22/07:30pm 29.7 25.8 10.8 31 10.9 NNW 22 32 12 17 1010.2 1009.1 0.0
22/07:00pm 31.9 27.6 9.4 25 12.9 NNW 22 41 12 22 1009.1 1008.0 0.0
22/06:30pm 33.6 29.7 9.6 23 13.9 NNE 20 26 11 14 1008.3 1007.3 0.0
22/06:00pm 34.1 30.5 10.0 23 14.0 NNE 19 26 10 14 1008.1 1007.1 0.0
22/05:30pm 34.3 30.2 10.2 23 14.1 N 22 32 12 17 1008.5 1007.5 0.0
22/05:00pm 34.4 30.0 10.3 23 14.1 NNW 24 32 13 17 1008.5 1007.5 0.0
22/04:30pm 34.4 30.2 8.2 20 14.9 N 20 30 11 16 1008.9 1007.8 0.0
22/04:00pm 34.5 29.6 8.3 20 14.9 N 24 32 13 17 1009.3 1008.2 0.0
22/03:30pm 35.0 30.2 8.7 20 15.1 N 24 35 13 19 1009.7 1008.6 0.0
22/03:00pm 35.3 29.6 9.7 21 14.9 N 30 46 16 25 1010.1 1009.0 0.0
22/02:57pm 34.5 29.0 9.0 21 14.6 N 28 46 15 25 1010.1 1009.0 0.0
22/02:30pm 35.2 29.8 10.9 23 14.4 NNW 30 43 16 23 1010.7 1009.6 0.0
22/02:19pm 35.6 30.1 11.9 24 14.3 N 32 50 17 27 1010.9 1009.8 0.0
22/02:00pm 35.8 30.4 12.7 25 14.1 N 33 50 18 27 1011.1 1010.0 0.0
22/01:43pm 35.5 30.8 14.2 28 13.3 N 32 50 17 27 1011.5 1010.5 0.0
22/01:30pm 34.8 28.7 13.0 26 13.3 N 37 50 20 27 1011.8 1010.8 0.0
22/01:00pm 33.5 28.5 14.0 30 12.0 N 33 46 18 25 1012.5 1011.5 0.0
22/12:42pm 34.1 30.3 14.6 31 12.1 N 28 46 15 25 1012.9 1011.9 0.0
22/12:30pm 33.3 28.8 14.8 32 11.5 N 32 41 17 22 1013.1 1012.1 0.0
22/12:00pm 32.2 26.9 14.3 33 11.0 N 35 43 19 23 1013.6 1012.5 0.0
22/11:30am 32.6 27.5 14.7 34 11.1 N 35 46 19 25 1013.8 1012.7 0.0
22/11:00am 30.7 25.3 13.9 36 10.2 N 35 46 19 25 1013.9 1012.8 0.0
22/10:30am 28.9 23.4 13.6 39 9.2 N 35 46 19 25 1014.0 1012.9 0.0
22/10:00am 29.0 23.0 13.2 37 9.4 N 37 50 20 27 1014.1 1013.0 0.0
22/09:30am 28.0 21.9 13.1 39 8.9 N 37 46 20 25 1014.0 1012.9 0.0
22/09:00am 28.0 22.5 13.5 41 8.7 N 35 48 19 26 1013.9 1012.8 0.0
22/08:30am 27.1 21.2 12.3 39 8.7 N 35 46 19 25 1013.8 1012.7 0.0
22/08:00am 26.7 20.6 13.1 43 8.0 N 37 48 20 26 1013.7 1012.6 0.0
22/07:30am 26.3 21.0 14.1 47 7.3 NNE 35 48 19 26 1013.2 1012.2 0.0
22/07:00am 25.2 21.4 13.7 49 6.8 NNE 26 33 14 18 1013.2 1012.2 0.0
22/06:30am 22.9 23.1 14.2 58 5.2 N 6 15 3 8 1013.2 1012.2 0.0
22/06:00am 20.6 20.4 11.8 57 5.0 NE 4 9 2 5 1012.9 1011.9 0.0
22/05:30am 21.6 20.5 11.9 54 5.5 ENE 9 11 5 6 1012.4 1011.4 0.0
22/05:00am 21.5 21.6 11.5 53 5.6 NE 2 7 1 4 1012.2 1011.2 0.0
22/04:30am 20.2 19.4 10.9 55 5.1 NE 6 7 3 4 1011.9 1010.9 0.0
22/04:00am 21.3 19.2 11.1 52 5.7 NE 13 15 7 8 1011.7 1010.7 0.0
22/03:30am 22.1 20.2 10.6 48 6.4 NE 11 15 6 8 1011.9 1010.9 0.0
22/03:00am 22.2 20.5 11.3 50 6.1 ENE 11 13 6 7 1011.8 1010.8 0.0
22/02:30am 21.5 20.3 9.7 47 6.4 NE 6 9 3 5 1011.8 1010.8 0.0
22/02:00am 21.9 19.9 8.8 43 7.0 NNE 9 15 5 8 1012.0 1011.0 0.0
22/01:30am 24.2 21.5 10.5 42 7.7 NNE 15 20 8 11 1012.1 1011.1 0.0
22/01:00am 21.9 19.9 8.8 43 7.0 NNE 9 13 5 7 1012.3 1011.3 0.0
22/12:30am 22.9 21.2 10.0 44 7.1 NNE 9 13 5 7 1012.4 1011.4 0.0
22/12:00am 22.3 22.4 10.1 46 6.7 CALM 0 0 0 0 1012.5 1011.5 0.0
 
Date/Time
EDT
Temp
°C
App
Temp
°C
Dew
Point
Rel
Hum
%
Delta-T
°C
Wind Press
QNH
hPa
Press
MSL
hPa
Rain
since 9 am
mm
Dir
 
Spd
km/h
Gust
km/h
Spd
kts
Gust
kts
21/11:30pm 22.8 21.7 12.1 51 6.1 E 9 9 5 5 1012.6 1011.6 0.0
21/11:00pm 23.4 22.6 11.8 48 6.6 ENE 7 9 4 5 1012.5 1011.5 0.0
21/10:30pm 23.9 24.1 10.6 43 7.4 CALM 0 0 0 0 1012.2 1011.2 0.0
21/10:00pm 26.3 24.5 9.6 35 9.3 E 9 11 5 6 1012.2 1011.2 0.0
21/09:30pm 26.3 24.5 9.6 35 9.3 ESE 9 11 5 6 1011.9 1010.9 0.0
21/09:00pm 27.0 25.9 9.8 34 9.7 SE 6 7 3 4 1011.9 1010.9 0.0
21/08:30pm 29.3 27.7 8.9 28 11.4 SE 7 9 4 5 1011.6 1010.6 0.0
21/08:00pm 30.6 29.0 8.9 26 12.2 SSE 7 9 4 5 1011.5 1010.5 0.0
21/07:30pm 32.7 30.6 8.2 22 13.8 SSE 9 15 5 8 1011.3 1010.3 0.0
21/07:00pm 33.5 31.8 8.2 21 14.3 E 7 11 4 6 1011.2 1010.1 0.0
21/06:30pm 33.4 31.5 7.4 20 14.5 NNW 7 11 4 6 1011.3 1010.3 0.0
21/06:00pm 34.1 32.5 8.0 20 14.7 E 6 11 3 6 1011.1 1010.0 0.0
21/05:30pm 33.3 31.1 8.0 21 14.2 ENE 9 17 5 9 1011.2 1010.1 0.0
21/05:00pm 33.6 30.2 7.5 20 14.6 N 15 26 8 14 1011.5 1010.5 0.0
21/04:30pm 34.1 32.1 8.7 21 14.5 NE 9 17 5 9 1011.8 1010.8 0.0
21/04:00pm 33.0 30.2 8.5 22 13.9 NNW 13 24 7 13 1012.2 1011.2 0.0
21/03:30pm 33.4 30.6 10.1 24 13.5 NNW 15 24 8 13 1012.5 1011.5 0.0
21/03:00pm 33.0 30.0 9.1 23 13.6 NNE 15 20 8 11 1013.0 1012.0 0.0
21/02:30pm 32.4 28.6 9.2 24 13.2 N 19 28 10 15 1013.4 1012.3 0.0
21/02:00pm 32.5 30.3 9.3 24 13.2 NNE 11 19 6 10 1013.8 1012.7 0.0
21/01:30pm 31.7 28.0 9.3 25 12.7 NNW 19 28 10 15 1014.2 1013.1 0.0
21/01:00pm 31.2 27.7 8.8 25 12.6 NNW 17 26 9 14 1014.7 1013.6 0.0
21/12:30pm 31.3 27.4 9.5 26 12.4 NNW 20 33 11 18 1015.1 1014.1 0.0
21/12:00pm 30.6 26.1 10.0 28 11.8 N 24 37 13 20 1015.3 1014.3 0.0
21/11:30am 30.3 26.2 11.3 31 11.1 N 24 35 13 19 1015.5 1014.5 0.0
21/11:00am 29.5 26.0 10.1 30 11.1 NNE 19 30 10 16 1015.7 1014.7 0.0
21/10:30am 29.1 24.2 9.8 30 10.9 N 26 37 14 20 1016.3 1015.3 0.0
21/10:00am 27.8 22.8 8.1 29 10.8 N 24 35 13 19 1016.1 1015.1 0.0
21/09:30am 26.8 22.2 8.3 31 10.1 N 22 35 12 19 1016.1 1015.1 0.0
21/09:00am 24.8 22.4 9.9 39 8.3 N 13 20 7 11 1016.1 1015.1 0.0
21/08:30am 23.8 20.5 9.4 40 7.9 NNE 17 28 9 15 1016.1 1015.1 0.0
21/08:00am 23.3 20.8 9.7 42 7.5 NE 13 28 7 15 1015.9 1014.9 0.0
21/07:30am 21.2 21.6 11.2 53 5.6 CALM 0 0 0 0 1015.7 1014.7 0.0
21/07:00am 16.4 16.3 9.3 63 3.7 CALM 0 0 0 0 1015.5 1014.5 0.0
21/06:30am 13.9 13.8 9.3 74 2.4 CALM 0 0 0 0 1015.2 1014.2 0.0
21/06:00am 13.5 13.2 8.6 72 2.5 CALM 0 0 0 0 1014.9 1013.8 0.0
21/05:30am 14.3 14.1 8.9 70 2.8 CALM 0 0 0 0 1014.6 1013.5 0.0
21/05:00am 15.0 14.8 9.1 68 3.1 CALM 0 0 0 0 1014.4 1013.3 0.0
21/04:30am 15.1 13.7 8.8 66 3.2 SE 6 7 3 4 1014.2 1013.1 0.0
21/04:00am 16.0 14.3 8.5 61 3.9 E 7 9 4 5 1013.9 1012.8 0.0
21/03:30am 17.1 14.7 8.8 58 4.3 ENE 11 13 6 7 1013.8 1012.7 0.0
21/03:00am 16.2 15.6 7.2 55 4.5 CALM 0 0 0 0 1013.7 1012.6 0.0
21/02:30am 16.2 13.6 6.1 51 5.0 NE 9 13 5 7 1013.9 1012.8 0.0
21/02:00am 16.8 13.8 6.0 49 5.3 E 11 13 6 7 1014.0 1012.9 0.0
21/01:30am 17.4 14.6 6.9 50 5.3 ESE 11 15 6 8 1014.0 1012.9 0.0
21/01:00am 17.1 16.7 8.3 56 4.5 CALM 0 0 0 0 1014.0 1012.9 0.0
21/12:30am 17.5 16.9 7.5 52 5.1 CALM 0 0 0 0 1014.3 1013.2 0.0
21/12:00am 18.0 17.3 7.1 49 5.5 CALM 0 0 0 0 1014.4 1013.3 0.0
 
Date/Time
EDT
Temp
°C
App
Temp
°C
Dew
Point
Rel
Hum
%
Delta-T
°C
Wind Press
QNH
hPa
Press
MSL
hPa
Rain
since 9 am
mm
Dir
 
Spd
km/h
Gust
km/h
Spd
kts
Gust
kts
20/11:30pm 17.8 17.0 6.7 48 5.6 CALM 0 0 0 0 1014.5 1013.4 0.0
20/11:00pm 19.0 18.0 5.8 42 6.6 CALM 0 0 0 0 1014.5 1013.4 0.0
20/10:30pm 19.6 18.6 5.6 40 7.0 CALM 0 0 0 0 1014.4 1013.3 0.0
20/10:00pm 20.5 19.3 4.5 35 7.8 CALM 0 0 0 0 1014.4 1013.3 0.0
20/09:30pm 21.6 20.3 4.2 32 8.5 CALM 0 0 0 0 1014.1 1013.0 0.0
20/09:00pm 23.0 21.2 3.5 28 9.5 S 2 6 1 3 1013.9 1012.8 0.0
20/08:30pm 25.3 22.7 4.4 26 10.6 SSE 7 7 4 4 1013.5 1012.4 0.0
20/08:00pm 27.5 24.3 3.2 21 12.2 SSE 9 11 5 6 1013.4 1012.3 0.0
20/07:30pm 28.7 24.8 3.5 20 12.8 S 13 20 7 11 1013.2 1012.2 0.0
20/07:00pm 29.4 25.4 2.6 18 13.5 S 13 20 7 11 1013.0 1012.0 0.0
20/06:30pm 29.8 25.1 2.9 18 13.6 S 17 22 9 12 1012.6 1011.6 0.0
20/06:00pm 29.8 25.7 2.1 17 13.8 SSW 13 22 7 12 1012.5 1011.5 0.0
20/05:30pm 30.1 24.8 3.2 18 13.7 SSW 20 28 11 15 1012.5 1011.5 0.0
20/05:00pm 29.3 23.9 2.5 18 13.4 S 20 30 11 16 1012.6 1011.6 0.0
20/04:30pm 29.7 24.8 2.1 17 13.8 SSW 17 22 9 12 1012.8 1011.8 0.0
20/04:00pm 28.9 24.6 3.0 19 13.1 SW 15 24 8 13 1013.2 1012.2 0.0
20/03:30pm 29.9 25.2 3.0 18 13.7 SSW 17 28 9 15 1013.7 1012.6 0.0
20/03:00pm 29.1 24.9 3.9 20 12.9 WSW 15 30 8 16 1014.1 1013.0 0.0
20/02:30pm 28.4 25.8 4.0 21 12.5 S 7 17 4 9 1014.5 1013.4 0.0
20/02:00pm 28.3 24.1 3.9 21 12.5 WSW 15 22 8 12 1014.9 1013.8 0.0
20/01:30pm 27.2 22.7 2.3 20 12.3 WSW 15 26 8 14 1015.3 1014.3 0.0
20/01:00pm 27.2 23.4 3.7 22 11.9 WSW 13 24 7 13 1015.6 1014.6 0.0
20/12:30pm 25.9 21.4 1.9 21 11.6 NW 15 24 8 13 1016.2 1015.2 0.0
20/12:00pm 26.5 22.0 2.4 21 11.8 WNW 15 28 8 15 1016.4 1015.4 0.0
20/11:30am 25.3 21.7 2.7 23 11.1 SW 11 20 6 11 1016.7 1015.7 0.0
20/11:00am 24.3 20.1 1.9 23 10.7 WNW 13 22 7 12 1016.8 1015.8 0.0
20/10:30am 23.5 19.6 3.4 27 9.9 WNW 13 19 7 10 1017.1 1016.1 0.0
20/10:00am 23.1 19.1 3.1 27 9.7 N 13 20 7 11 1017.2 1016.2 0.0
20/09:30am 22.4 18.5 3.5 29 9.2 N 13 22 7 12 1017.2 1016.2 0.0
20/09:00am 21.7 17.4 5.2 34 8.3 N 17 22 9 12 1017.1 1016.1 0.0
20/08:30am 20.1 15.2 7.1 43 6.7 N 22 28 12 15 1017.0 1016.0 0.0
20/08:00am 18.6 14.6 4.8 40 6.7 N 15 22 8 12 1016.8 1015.8 0.0
20/07:30am 15.7 13.0 3.8 45 5.6 NNW 7 9 4 5 1016.6 1015.6 0.0
20/07:00am 13.1 10.0 3.5 52 4.4 NNE 9 13 5 7 1016.2 1015.2 0.0
20/06:30am 10.3 7.6 3.6 63 3.0 NNE 7 9 4 5 1016.0 1015.0 0.0
20/06:00am 9.8 8.5 4.0 67 2.6 CALM 0 0 0 0 1015.9 1014.9 0.0
20/05:30am 9.5 7.8 2.1 60 3.2 CALM 0 0 0 0 1015.6 1014.6 0.0
20/05:00am 9.7 8.0 1.8 58 3.3 CALM 0 0 0 0 1015.5 1014.5 0.0
20/04:30am 10.8 9.6 4.5 65 2.9 CALM 0 0 0 0 1015.4 1014.4 0.0
20/04:00am 10.6 7.9 2.7 58 3.4 ENE 6 9 3 5 1015.3 1014.3 0.0
20/03:30am 11.7 9.1 3.0 55 3.9 SE 6 9 3 5 1015.2 1014.2 0.0
20/03:00am 13.9 10.7 3.1 48 4.9 SSE 9 13 5 7 1015.2 1014.2 0.0
20/02:30am 13.5 9.9 2.7 48 4.8 S 11 13 6 7 1015.5 1014.5 0.0
20/02:00am 14.2 10.5 2.5 45 5.2 SSW 11 13 6 7 1015.8 1014.8 0.0
20/01:30am 15.1 11.3 2.0 41 5.9 S 11 13 6 7 1016.0 1015.0 0.0
20/01:00am 15.4 11.2 1.9 40 6.0 S 13 15 7 8 1015.9 1014.9 0.0
20/12:30am 16.1 11.9 1.4 37 6.5 S 13 13 7 7 1016.1 1015.1 0.0
20/12:00am 16.0 12.2 1.7 38 6.4 SSW 11 13 6 7 1016.3 1015.3 0.0
 
Date/Time
EDT
Temp
°C
App
Temp
°C
Dew
Point
Rel
Hum
%
Delta-T
°C
Wind Press
QNH
hPa
Press
MSL
hPa
Rain
since 9 am
mm
Dir
 
Spd
km/h
Gust
km/h
Spd
kts
Gust
kts
19/11:30pm 16.8 12.9 0.9 34 7.0 SSW 11 15 6 8 1016.4 1015.4 0.0
19/11:00pm 17.9 13.8 0.1 30 7.8 SW 11 15 6 8 1016.5 1015.5 0.0
19/10:30pm 18.8 14.3 -0.1 28 8.3 SW 13 15 7 8 1016.3 1015.3 0.0
19/10:00pm 17.9 13.8 -0.4 29 8.0 SW 11 15 6 8 1016.1 1015.1 0.0
19/09:30pm 18.4 14.3 -0.4 28 8.2 SW 11 13 6 7 1015.7 1014.7 0.0
19/09:00pm 19.1 14.9 -0.8 26 8.7 SW 11 15 6 8 1015.3 1014.3 0.0
19/08:30pm 21.3 16.3 -1.3 22 10.0 SW 15 19 8 10 1015.1 1014.1 0.0

Other Formats:

Comma delimited format used in spreadsheet applications
http://www.bom.gov.au/fwo/IDN60801/IDN60801.94715.axf

JavaScript Object Notation format (JSON) in row-major order
http://www.bom.gov.au/fwo/IDN60801/IDN60801.94715.json